sensor_id;sensor_type;location;lat;lon;timestamp;P1;durP1;ratioP1;P2;durP2;ratioP2
50757;SDS011;36732;47.980;11.652;2023-11-18T00:00:19;2.55;;;2.35;;
50757;SDS011;36732;47.980;11.652;2023-11-18T00:02:45;3.25;;;2.50;;
50757;SDS011;36732;47.980;11.652;2023-11-18T00:05:11;2.90;;;2.63;;
50757;SDS011;36732;47.980;11.652;2023-11-18T00:07:37;2.97;;;2.25;;
50757;SDS011;36732;47.980;11.652;2023-11-18T00:10:03;3.10;;;2.60;;
50757;SDS011;36732;47.980;11.652;2023-11-18T00:12:31;2.80;;;2.60;;
50757;SDS011;36732;47.980;11.652;2023-11-18T00:14:59;2.80;;;2.40;;
50757;SDS011;36732;47.980;11.652;2023-11-18T00:17:28;2.92;;;2.50;;
50757;SDS011;36732;47.980;11.652;2023-11-18T00:19:57;3.00;;;2.15;;
50757;SDS011;36732;47.980;11.652;2023-11-18T00:22:23;2.72;;;2.53;;
50757;SDS011;36732;47.980;11.652;2023-11-18T00:24:48;3.50;;;2.75;;
50757;SDS011;36732;47.980;11.652;2023-11-18T00:27:15;2.88;;;2.30;;
50757;SDS011;36732;47.980;11.652;2023-11-18T00:29:41;2.42;;;2.22;;
50757;SDS011;36732;47.980;11.652;2023-11-18T00:32:08;2.30;;;2.10;;
50757;SDS011;36732;47.980;11.652;2023-11-18T00:34:34;2.45;;;2.25;;
50757;SDS011;36732;47.980;11.652;2023-11-18T00:37:00;2.28;;;2.08;;
50757;SDS011;36732;47.980;11.652;2023-11-18T00:39:26;2.35;;;2.15;;
50757;SDS011;36732;47.980;11.652;2023-11-18T00:41:52;2.38;;;2.17;;
50757;SDS011;36732;47.980;11.652;2023-11-18T00:44:19;2.20;;;2.05;;
50757;SDS011;36732;47.980;11.652;2023-11-18T00:46:44;2.25;;;1.92;;
50757;SDS011;36732;47.980;11.652;2023-11-18T00:49:10;2.45;;;2.25;;
50757;SDS011;36732;47.980;11.652;2023-11-18T00:51:36;2.33;;;2.13;;
50757;SDS011;36732;47.980;11.652;2023-11-18T00:54:02;2.38;;;2.17;;
50757;SDS011;36732;47.980;11.652;2023-11-18T00:56:31;2.05;;;1.83;;
50757;SDS011;36732;47.980;11.652;2023-11-18T00:58:57;2.88;;;2.17;;
50757;SDS011;36732;47.980;11.652;2023-11-18T01:01:23;1.92;;;1.73;;
50757;SDS011;36732;47.980;11.652;2023-11-18T01:03:48;1.50;;;1.40;;
50757;SDS011;36732;47.980;11.652;2023-11-18T01:06:14;1.75;;;1.65;;
50757;SDS011;36732;47.980;11.652;2023-11-18T01:08:46;1.70;;;1.60;;
50757;SDS011;36732;47.980;11.652;2023-11-18T01:11:18;1.23;;;1.13;;
50757;SDS011;36732;47.980;11.652;2023-11-18T01:13:45;1.30;;;1.20;;
50757;SDS011;36732;47.980;11.652;2023-11-18T01:16:16;2.15;;;1.33;;
50757;SDS011;36732;47.980;11.652;2023-11-18T01:18:42;1.40;;;1.30;;
50757;SDS011;36732;47.980;11.652;2023-11-18T01:21:08;1.45;;;1.35;;
50757;SDS011;36732;47.980;11.652;2023-11-18T01:23:37;1.30;;;1.20;;
50757;SDS011;36732;47.980;11.652;2023-11-18T01:26:07;1.17;;;1.10;;
50757;SDS011;36732;47.980;11.652;2023-11-18T01:28:36;1.20;;;1.02;;
50757;SDS011;36732;47.980;11.652;2023-11-18T01:31:04;1.30;;;1.20;;
50757;SDS011;36732;47.980;11.652;2023-11-18T01:33:32;1.48;;;1.20;;
50757;SDS011;36732;47.980;11.652;2023-11-18T01:35:58;1.10;;;1.00;;
50757;SDS011;36732;47.980;11.652;2023-11-18T01:38:24;1.20;;;1.10;;
50757;SDS011;36732;47.980;11.652;2023-11-18T01:40:51;0.93;;;0.93;;
50757;SDS011;36732;47.980;11.652;2023-11-18T01:43:18;0.95;;;0.88;;
50757;SDS011;36732;47.980;11.652;2023-11-18T01:45:44;0.77;;;0.77;;
50757;SDS011;36732;47.980;11.652;2023-11-18T01:48:11;0.70;;;0.70;;
50757;SDS011;36732;47.980;11.652;2023-11-18T01:50:38;1.23;;;0.85;;
50757;SDS011;36732;47.980;11.652;2023-11-18T01:53:10;0.80;;;0.80;;
50757;SDS011;36732;47.980;11.652;2023-11-18T01:55:39;0.90;;;0.90;;
50757;SDS011;36732;47.980;11.652;2023-11-18T01:58:05;0.80;;;0.80;;
50757;SDS011;36732;47.980;11.652;2023-11-18T02:00:35;0.70;;;0.70;;
50757;SDS011;36732;47.980;11.652;2023-11-18T02:03:06;0.88;;;0.82;;
50757;SDS011;36732;47.980;11.652;2023-11-18T02:05:33;0.70;;;0.70;;
50757;SDS011;36732;47.980;11.652;2023-11-18T02:08:00;0.80;;;0.80;;
50757;SDS011;36732;47.980;11.652;2023-11-18T02:10:32;0.80;;;0.80;;
50757;SDS011;36732;47.980;11.652;2023-11-18T02:15:33;1.20;;;0.98;;
50757;SDS011;36732;47.980;11.652;2023-11-18T02:18:01;0.88;;;0.80;;
50757;SDS011;36732;47.980;11.652;2023-11-18T02:20:29;0.82;;;0.82;;
50757;SDS011;36732;47.980;11.652;2023-11-18T02:22:55;1.30;;;0.93;;
50757;SDS011;36732;47.980;11.652;2023-11-18T02:25:21;0.80;;;0.80;;
50757;SDS011;36732;47.980;11.652;2023-11-18T02:27:52;0.85;;;0.85;;
50757;SDS011;36732;47.980;11.652;2023-11-18T02:30:18;0.60;;;0.60;;
50757;SDS011;36732;47.980;11.652;2023-11-18T02:32:56;0.90;;;0.80;;
50757;SDS011;36732;47.980;11.652;2023-11-18T02:35:38;0.80;;;0.77;;
50757;SDS011;36732;47.980;11.652;2023-11-18T02:38:13;0.90;;;0.90;;
50757;SDS011;36732;47.980;11.652;2023-11-18T02:40:44;0.73;;;0.73;;
50757;SDS011;36732;47.980;11.652;2023-11-18T02:43:13;0.93;;;0.88;;
50757;SDS011;36732;47.980;11.652;2023-11-18T02:45:40;1.20;;;1.10;;
50757;SDS011;36732;47.980;11.652;2023-11-18T02:48:07;1.05;;;0.95;;
50757;SDS011;36732;47.980;11.652;2023-11-18T02:50:34;1.10;;;1.00;;
50757;SDS011;36732;47.980;11.652;2023-11-18T02:53:03;0.88;;;0.88;;
50757;SDS011;36732;47.980;11.652;2023-11-18T02:55:28;1.52;;;1.00;;
50757;SDS011;36732;47.980;11.652;2023-11-18T02:57:54;0.88;;;0.88;;
50757;SDS011;36732;47.980;11.652;2023-11-18T03:00:20;1.13;;;1.02;;
50757;SDS011;36732;47.980;11.652;2023-11-18T03:02:46;1.10;;;1.00;;
50757;SDS011;36732;47.980;11.652;2023-11-18T03:05:13;1.30;;;1.20;;
50757;SDS011;36732;47.980;11.652;2023-11-18T03:07:43;0.93;;;0.93;;
50757;SDS011;36732;47.980;11.652;2023-11-18T03:10:12;1.10;;;1.00;;
50757;SDS011;36732;47.980;11.652;2023-11-18T03:12:49;0.90;;;0.90;;
50757;SDS011;36732;47.980;11.652;2023-11-18T03:15:17;1.38;;;1.27;;
50757;SDS011;36732;47.980;11.652;2023-11-18T03:17:46;1.05;;;1.05;;
50757;SDS011;36732;47.980;11.652;2023-11-18T03:20:15;1.30;;;1.20;;
50757;SDS011;36732;47.980;11.652;2023-11-18T03:22:42;1.23;;;1.13;;
50757;SDS011;36732;47.980;11.652;2023-11-18T03:25:10;1.02;;;0.93;;
50757;SDS011;36732;47.980;11.652;2023-11-18T03:27:36;1.23;;;1.13;;
50757;SDS011;36732;47.980;11.652;2023-11-18T03:30:02;1.50;;;1.13;;
50757;SDS011;36732;47.980;11.652;2023-11-18T03:32:37;1.38;;;1.27;;
50757;SDS011;36732;47.980;11.652;2023-11-18T03:35:04;1.30;;;1.20;;
50757;SDS011;36732;47.980;11.652;2023-11-18T03:37:35;1.30;;;1.20;;
50757;SDS011;36732;47.980;11.652;2023-11-18T03:40:04;1.20;;;1.10;;
50757;SDS011;36732;47.980;11.652;2023-11-18T03:42:33;1.15;;;1.05;;
50757;SDS011;36732;47.980;11.652;2023-11-18T03:45:00;1.20;;;1.10;;
50757;SDS011;36732;47.980;11.652;2023-11-18T03:47:26;1.25;;;1.15;;
50757;SDS011;36732;47.980;11.652;2023-11-18T03:49:52;1.50;;;1.30;;
50757;SDS011;36732;47.980;11.652;2023-11-18T03:52:20;1.40;;;1.30;;
50757;SDS011;36732;47.980;11.652;2023-11-18T03:54:46;1.40;;;1.30;;
50757;SDS011;36732;47.980;11.652;2023-11-18T03:57:14;1.35;;;1.20;;
50757;SDS011;36732;47.980;11.652;2023-11-18T03:59:41;1.60;;;1.50;;
50757;SDS011;36732;47.980;11.652;2023-11-18T04:02:07;1.50;;;1.40;;
50757;SDS011;36732;47.980;11.652;2023-11-18T04:04:34;1.60;;;1.35;;
50757;SDS011;36732;47.980;11.652;2023-11-18T04:07:00;1.42;;;1.33;;
50757;SDS011;36732;47.980;11.652;2023-11-18T04:09:26;1.20;;;1.10;;
50757;SDS011;36732;47.980;11.652;2023-11-18T04:15:33;1.63;;;1.52;;
50757;SDS011;36732;47.980;11.652;2023-11-18T04:18:00;1.67;;;1.58;;
50757;SDS011;36732;47.980;11.652;2023-11-18T04:20:26;1.30;;;1.20;;
50757;SDS011;36732;47.980;11.652;2023-11-18T04:22:52;1.33;;;1.20;;
50757;SDS011;36732;47.980;11.652;2023-11-18T04:25:19;1.52;;;1.42;;
50757;SDS011;36732;47.980;11.652;2023-11-18T04:27:46;2.10;;;1.42;;
50757;SDS011;36732;47.980;11.652;2023-11-18T04:30:12;1.75;;;1.58;;
50757;SDS011;36732;47.980;11.652;2023-11-18T04:32:38;1.38;;;1.27;;
50757;SDS011;36732;47.980;11.652;2023-11-18T04:35:04;1.73;;;1.60;;
50757;SDS011;36732;47.980;11.652;2023-11-18T04:37:32;1.80;;;1.55;;
50757;SDS011;36732;47.980;11.652;2023-11-18T04:39:59;1.50;;;1.40;;
50757;SDS011;36732;47.980;11.652;2023-11-18T04:42:26;1.77;;;1.67;;
50757;SDS011;36732;47.980;11.652;2023-11-18T04:44:54;1.70;;;1.60;;
50757;SDS011;36732;47.980;11.652;2023-11-18T04:47:21;2.00;;;1.80;;
50757;SDS011;36732;47.980;11.652;2023-11-18T04:49:47;1.92;;;1.50;;
50757;SDS011;36732;47.980;11.652;2023-11-18T04:52:12;1.42;;;1.33;;
50757;SDS011;36732;47.980;11.652;2023-11-18T04:54:38;1.77;;;1.60;;
50757;SDS011;36732;47.980;11.652;2023-11-18T04:57:04;1.75;;;1.38;;
50757;SDS011;36732;47.980;11.652;2023-11-18T04:59:29;1.83;;;1.60;;
50757;SDS011;36732;47.980;11.652;2023-11-18T05:01:58;2.15;;;1.80;;
50757;SDS011;36732;47.980;11.652;2023-11-18T05:04:23;2.58;;;1.60;;
50757;SDS011;36732;47.980;11.652;2023-11-18T05:06:49;1.50;;;1.40;;
50757;SDS011;36732;47.980;11.652;2023-11-18T05:09:16;1.55;;;1.27;;
50757;SDS011;36732;47.980;11.652;2023-11-18T05:11:43;1.70;;;1.60;;
50757;SDS011;36732;47.980;11.652;2023-11-18T05:14:09;1.77;;;1.65;;
50757;SDS011;36732;47.980;11.652;2023-11-18T05:16:36;1.92;;;1.83;;
50757;SDS011;36732;47.980;11.652;2023-11-18T05:19:02;1.92;;;1.60;;
50757;SDS011;36732;47.980;11.652;2023-11-18T05:21:27;2.15;;;1.50;;
50757;SDS011;36732;47.980;11.652;2023-11-18T05:23:54;2.13;;;1.70;;
50757;SDS011;36732;47.980;11.652;2023-11-18T05:26:20;1.52;;;1.42;;
50757;SDS011;36732;47.980;11.652;2023-11-18T05:28:45;1.70;;;1.60;;
50757;SDS011;36732;47.980;11.652;2023-11-18T05:31:11;1.60;;;1.50;;
50757;SDS011;36732;47.980;11.652;2023-11-18T05:33:37;1.80;;;1.67;;
50757;SDS011;36732;47.980;11.652;2023-11-18T05:36:03;1.67;;;1.58;;
50757;SDS011;36732;47.980;11.652;2023-11-18T05:38:32;1.75;;;1.65;;
50757;SDS011;36732;47.980;11.652;2023-11-18T05:41:00;1.50;;;1.40;;
50757;SDS011;36732;47.980;11.652;2023-11-18T05:43:31;1.80;;;1.70;;
50757;SDS011;36732;47.980;11.652;2023-11-18T05:46:05;1.77;;;1.67;;
50757;SDS011;36732;47.980;11.652;2023-11-18T05:48:40;2.20;;;1.65;;
50757;SDS011;36732;47.980;11.652;2023-11-18T05:51:07;2.58;;;1.88;;
50757;SDS011;36732;47.980;11.652;2023-11-18T05:53:33;1.73;;;1.63;;
50757;SDS011;36732;47.980;11.652;2023-11-18T05:55:59;1.95;;;1.77;;
50757;SDS011;36732;47.980;11.652;2023-11-18T05:58:25;2.10;;;1.90;;
50757;SDS011;36732;47.980;11.652;2023-11-18T06:00:50;1.50;;;1.40;;
50757;SDS011;36732;47.980;11.652;2023-11-18T06:03:16;1.90;;;1.80;;
50757;SDS011;36732;47.980;11.652;2023-11-18T06:05:43;2.00;;;1.90;;
50757;SDS011;36732;47.980;11.652;2023-11-18T06:08:08;1.70;;;1.60;;
50757;SDS011;36732;47.980;11.652;2023-11-18T06:10:36;2.20;;;2.03;;
50757;SDS011;36732;47.980;11.652;2023-11-18T06:13:03;1.90;;;1.80;;
50757;SDS011;36732;47.980;11.652;2023-11-18T06:15:29;1.70;;;1.60;;
50757;SDS011;36732;47.980;11.652;2023-11-18T06:17:55;3.30;;;2.08;;
50757;SDS011;36732;47.980;11.652;2023-11-18T06:20:21;2.75;;;2.45;;
50757;SDS011;36732;47.980;11.652;2023-11-18T06:22:48;1.92;;;1.65;;
50757;SDS011;36732;47.980;11.652;2023-11-18T06:25:14;2.55;;;1.98;;
50757;SDS011;36732;47.980;11.652;2023-11-18T06:27:42;3.05;;;1.70;;
50757;SDS011;36732;47.980;11.652;2023-11-18T06:30:10;1.83;;;1.60;;
50757;SDS011;36732;47.980;11.652;2023-11-18T06:32:37;1.67;;;1.58;;
50757;SDS011;36732;47.980;11.652;2023-11-18T06:35:04;1.83;;;1.65;;
50757;SDS011;36732;47.980;11.652;2023-11-18T06:37:33;1.75;;;1.65;;
50757;SDS011;36732;47.980;11.652;2023-11-18T06:39:59;1.77;;;1.67;;
50757;SDS011;36732;47.980;11.652;2023-11-18T06:42:26;1.80;;;1.70;;
50757;SDS011;36732;47.980;11.652;2023-11-18T06:44:51;2.17;;;1.98;;
50757;SDS011;36732;47.980;11.652;2023-11-18T06:47:17;1.83;;;1.73;;
50757;SDS011;36732;47.980;11.652;2023-11-18T06:49:44;2.58;;;1.73;;
50757;SDS011;36732;47.980;11.652;2023-11-18T06:52:12;2.30;;;2.10;;
50757;SDS011;36732;47.980;11.652;2023-11-18T06:54:40;2.72;;;1.92;;
50757;SDS011;36732;47.980;11.652;2023-11-18T06:57:06;2.13;;;1.83;;
50757;SDS011;36732;47.980;11.652;2023-11-18T06:59:32;2.00;;;1.80;;
50757;SDS011;36732;47.980;11.652;2023-11-18T07:01:58;2.60;;;1.83;;
50757;SDS011;36732;47.980;11.652;2023-11-18T07:04:24;2.15;;;1.85;;
50757;SDS011;36732;47.980;11.652;2023-11-18T07:06:50;1.73;;;1.63;;
50757;SDS011;36732;47.980;11.652;2023-11-18T07:09:16;1.70;;;1.60;;
50757;SDS011;36732;47.980;11.652;2023-11-18T07:11:43;1.77;;;1.67;;
50757;SDS011;36732;47.980;11.652;2023-11-18T07:14:09;1.77;;;1.67;;
50757;SDS011;36732;47.980;11.652;2023-11-18T07:16:40;3.60;;;2.47;;
50757;SDS011;36732;47.980;11.652;2023-11-18T07:19:07;2.53;;;2.33;;
50757;SDS011;36732;47.980;11.652;2023-11-18T07:21:35;3.65;;;3.22;;
50757;SDS011;36732;47.980;11.652;2023-11-18T07:24:00;3.72;;;3.33;;
50757;SDS011;36732;47.980;11.652;2023-11-18T07:26:27;5.97;;;2.83;;
50757;SDS011;36732;47.980;11.652;2023-11-18T07:28:53;5.03;;;3.85;;
50757;SDS011;36732;47.980;11.652;2023-11-18T07:31:18;5.80;;;5.05;;
50757;SDS011;36732;47.980;11.652;2023-11-18T07:33:45;8.77;;;6.45;;
50757;SDS011;36732;47.980;11.652;2023-11-18T07:36:17;9.00;;;7.13;;
50757;SDS011;36732;47.980;11.652;2023-11-18T07:38:44;5.38;;;3.80;;
50757;SDS011;36732;47.980;11.652;2023-11-18T07:41:15;3.60;;;3.30;;
50757;SDS011;36732;47.980;11.652;2023-11-18T07:43:49;2.80;;;2.60;;
50757;SDS011;36732;47.980;11.652;2023-11-18T07:46:19;2.78;;;2.50;;
50757;SDS011;36732;47.980;11.652;2023-11-18T07:48:49;2.78;;;2.53;;
50757;SDS011;36732;47.980;11.652;2023-11-18T07:51:18;2.97;;;2.58;;
50757;SDS011;36732;47.980;11.652;2023-11-18T07:53:46;2.90;;;2.70;;
50757;SDS011;36732;47.980;11.652;2023-11-18T07:56:13;2.85;;;2.65;;
50757;SDS011;36732;47.980;11.652;2023-11-18T07:58:41;3.28;;;2.97;;
50757;SDS011;36732;47.980;11.652;2023-11-18T08:01:12;3.75;;;3.45;;
50757;SDS011;36732;47.980;11.652;2023-11-18T08:03:42;4.00;;;3.40;;
50757;SDS011;36732;47.980;11.652;2023-11-18T08:06:09;3.60;;;3.05;;
50757;SDS011;36732;47.980;11.652;2023-11-18T08:08:37;3.30;;;3.00;;
50757;SDS011;36732;47.980;11.652;2023-11-18T08:11:03;3.17;;;2.63;;
50757;SDS011;36732;47.980;11.652;2023-11-18T08:13:30;2.55;;;2.35;;
50757;SDS011;36732;47.980;11.652;2023-11-18T08:15:56;3.17;;;2.70;;
50757;SDS011;36732;47.980;11.652;2023-11-18T08:18:23;2.58;;;2.38;;
50757;SDS011;36732;47.980;11.652;2023-11-18T08:20:49;2.45;;;2.25;;
50757;SDS011;36732;47.980;11.652;2023-11-18T08:23:15;2.47;;;2.28;;
50757;SDS011;36732;47.980;11.652;2023-11-18T08:25:41;2.60;;;2.40;;
50757;SDS011;36732;47.980;11.652;2023-11-18T08:28:07;3.05;;;2.75;;
50757;SDS011;36732;47.980;11.652;2023-11-18T08:30:42;3.03;;;2.55;;
50757;SDS011;36732;47.980;11.652;2023-11-18T08:33:08;2.30;;;2.10;;
50757;SDS011;36732;47.980;11.652;2023-11-18T08:35:34;2.00;;;1.88;;
50757;SDS011;36732;47.980;11.652;2023-11-18T08:38:01;2.15;;;1.95;;
50757;SDS011;36732;47.980;11.652;2023-11-18T08:40:28;1.92;;;1.83;;
50757;SDS011;36732;47.980;11.652;2023-11-18T08:42:54;2.30;;;2.10;;
50757;SDS011;36732;47.980;11.652;2023-11-18T08:45:21;5.43;;;2.20;;
50757;SDS011;36732;47.980;11.652;2023-11-18T08:47:54;2.47;;;1.92;;
50757;SDS011;36732;47.980;11.652;2023-11-18T08:50:24;2.17;;;1.98;;
50757;SDS011;36732;47.980;11.652;2023-11-18T08:52:51;2.17;;;1.98;;
50757;SDS011;36732;47.980;11.652;2023-11-18T08:55:22;2.15;;;1.65;;
50757;SDS011;36732;47.980;11.652;2023-11-18T08:58:03;2.38;;;2.08;;
50757;SDS011;36732;47.980;11.652;2023-11-18T09:00:52;2.40;;;2.20;;
50757;SDS011;36732;47.980;11.652;2023-11-18T09:03:29;1.92;;;1.77;;
50757;SDS011;36732;47.980;11.652;2023-11-18T09:06:04;1.73;;;1.63;;
50757;SDS011;36732;47.980;11.652;2023-11-18T09:08:37;2.05;;;1.83;;
50757;SDS011;36732;47.980;11.652;2023-11-18T09:11:04;3.08;;;2.22;;
50757;SDS011;36732;47.980;11.652;2023-11-18T09:13:32;1.67;;;1.58;;
50757;SDS011;36732;47.980;11.652;2023-11-18T09:16:00;1.77;;;1.63;;
50757;SDS011;36732;47.980;11.652;2023-11-18T09:18:34;2.22;;;1.98;;
50757;SDS011;36732;47.980;11.652;2023-11-18T09:21:01;2.45;;;1.75;;
50757;SDS011;36732;47.980;11.652;2023-11-18T09:23:30;2.22;;;1.75;;
50757;SDS011;36732;47.980;11.652;2023-11-18T09:25:59;2.17;;;1.98;;
50757;SDS011;36732;47.980;11.652;2023-11-18T09:28:26;3.00;;;2.53;;
50757;SDS011;36732;47.980;11.652;2023-11-18T09:30:55;2.95;;;2.65;;
50757;SDS011;36732;47.980;11.652;2023-11-18T09:33:28;3.38;;;2.20;;
50757;SDS011;36732;47.980;11.652;2023-11-18T09:35:59;1.95;;;1.75;;
50757;SDS011;36732;47.980;11.652;2023-11-18T09:38:30;1.73;;;1.63;;
50757;SDS011;36732;47.980;11.652;2023-11-18T09:40:57;1.48;;;1.38;;
50757;SDS011;36732;47.980;11.652;2023-11-18T09:43:31;1.50;;;1.40;;
50757;SDS011;36732;47.980;11.652;2023-11-18T09:46:07;1.50;;;1.40;;
50757;SDS011;36732;47.980;11.652;2023-11-18T09:51:25;2.53;;;1.35;;
50757;SDS011;36732;47.980;11.652;2023-11-18T09:53:55;1.83;;;1.42;;
50757;SDS011;36732;47.980;11.652;2023-11-18T09:59:41;1.10;;;1.00;;
50757;SDS011;36732;47.980;11.652;2023-11-18T10:02:19;1.33;;;1.23;;
50757;SDS011;36732;47.980;11.652;2023-11-18T10:04:55;1.33;;;1.17;;
50757;SDS011;36732;47.980;11.652;2023-11-18T10:07:26;1.70;;;1.40;;
50757;SDS011;36732;47.980;11.652;2023-11-18T10:09:54;1.35;;;1.20;;
50757;SDS011;36732;47.980;11.652;2023-11-18T10:12:22;3.20;;;1.25;;
50757;SDS011;36732;47.980;11.652;2023-11-18T10:14:49;2.67;;;1.52;;
50757;SDS011;36732;47.980;11.652;2023-11-18T10:17:17;1.92;;;1.40;;
50757;SDS011;36732;47.980;11.652;2023-11-18T10:19:56;1.48;;;1.38;;
50757;SDS011;36732;47.980;11.652;2023-11-18T10:22:37;1.73;;;1.40;;
50757;SDS011;36732;47.980;11.652;2023-11-18T10:25:03;1.55;;;1.23;;
50757;SDS011;36732;47.980;11.652;2023-11-18T10:27:31;1.85;;;1.10;;
50757;SDS011;36732;47.980;11.652;2023-11-18T10:30:03;1.83;;;1.02;;
50757;SDS011;36732;47.980;11.652;2023-11-18T10:32:43;2.95;;;0.98;;
50757;SDS011;36732;47.980;11.652;2023-11-18T10:35:34;1.48;;;1.10;;
50757;SDS011;36732;47.980;11.652;2023-11-18T10:38:03;1.48;;;1.38;;
50757;SDS011;36732;47.980;11.652;2023-11-18T10:40:32;1.48;;;1.00;;
50757;SDS011;36732;47.980;11.652;2023-11-18T10:43:02;2.65;;;1.30;;
50757;SDS011;36732;47.980;11.652;2023-11-18T10:45:34;1.48;;;1.17;;
50757;SDS011;36732;47.980;11.652;2023-11-18T10:48:05;1.55;;;0.90;;
50757;SDS011;36732;47.980;11.652;2023-11-18T10:50:31;1.05;;;0.95;;
50757;SDS011;36732;47.980;11.652;2023-11-18T10:52:58;0.80;;;0.80;;
50757;SDS011;36732;47.980;11.652;2023-11-18T10:55:34;1.63;;;1.10;;
50757;SDS011;36732;47.980;11.652;2023-11-18T10:58:05;1.13;;;1.02;;
50757;SDS011;36732;47.980;11.652;2023-11-18T11:00:47;1.02;;;0.85;;
50757;SDS011;36732;47.980;11.652;2023-11-18T11:03:13;0.90;;;0.90;;
50757;SDS011;36732;47.980;11.652;2023-11-18T11:05:40;2.35;;;1.15;;
50757;SDS011;36732;47.980;11.652;2023-11-18T11:08:08;1.20;;;1.10;;
50757;SDS011;36732;47.980;11.652;2023-11-18T11:10:33;1.30;;;1.20;;
50757;SDS011;36732;47.980;11.652;2023-11-18T11:13:01;1.08;;;0.98;;
50757;SDS011;36732;47.980;11.652;2023-11-18T11:15:31;1.30;;;0.93;;
50757;SDS011;36732;47.980;11.652;2023-11-18T11:18:04;1.25;;;1.10;;
50757;SDS011;36732;47.980;11.652;2023-11-18T11:20:39;1.00;;;0.80;;
50757;SDS011;36732;47.980;11.652;2023-11-18T11:23:21;1.05;;;0.95;;
50757;SDS011;36732;47.980;11.652;2023-11-18T11:32:10;1.33;;;0.85;;
50757;SDS011;36732;47.980;11.652;2023-11-18T11:34:53;4.10;;;1.33;;
50757;SDS011;36732;47.980;11.652;2023-11-18T11:37:23;0.80;;;0.80;;
50757;SDS011;36732;47.980;11.652;2023-11-18T11:39:53;0.90;;;0.70;;
50757;SDS011;36732;47.980;11.652;2023-11-18T11:42:23;1.08;;;0.77;;
50757;SDS011;36732;47.980;11.652;2023-11-18T11:44:49;1.60;;;0.70;;
50757;SDS011;36732;47.980;11.652;2023-11-18T11:47:18;0.70;;;0.70;;
50757;SDS011;36732;47.980;11.652;2023-11-18T11:49:50;0.85;;;0.80;;
50757;SDS011;36732;47.980;11.652;2023-11-18T11:52:32;0.77;;;0.77;;
50757;SDS011;36732;47.980;11.652;2023-11-18T11:58:01;1.95;;;0.93;;
50757;SDS011;36732;47.980;11.652;2023-11-18T12:00:27;2.15;;;0.77;;
50757;SDS011;36732;47.980;11.652;2023-11-18T12:03:00;1.15;;;0.82;;
50757;SDS011;36732;47.980;11.652;2023-11-18T12:05:29;0.68;;;0.68;;
50757;SDS011;36732;47.980;11.652;2023-11-18T12:07:58;0.88;;;0.80;;
50757;SDS011;36732;47.980;11.652;2023-11-18T12:10:27;0.85;;;0.80;;
50757;SDS011;36732;47.980;11.652;2023-11-18T12:13:08;1.33;;;0.70;;
50757;SDS011;36732;47.980;11.652;2023-11-18T12:15:53;3.15;;;0.80;;
50757;SDS011;36732;47.980;11.652;2023-11-18T12:18:28;0.80;;;0.70;;
50757;SDS011;36732;47.980;11.652;2023-11-18T12:20:56;0.63;;;0.55;;
50757;SDS011;36732;47.980;11.652;2023-11-18T12:23:27;0.70;;;0.70;;
50757;SDS011;36732;47.980;11.652;2023-11-18T12:25:54;1.45;;;0.65;;
50757;SDS011;36732;47.980;11.652;2023-11-18T12:28:25;0.75;;;0.70;;
50757;SDS011;36732;47.980;11.652;2023-11-18T12:30:53;1.02;;;0.70;;
50757;SDS011;36732;47.980;11.652;2023-11-18T12:33:23;1.08;;;0.80;;
50757;SDS011;36732;47.980;11.652;2023-11-18T12:41:38;0.90;;;0.70;;
50757;SDS011;36732;47.980;11.652;2023-11-18T12:49:20;1.75;;;0.90;;
50757;SDS011;36732;47.980;11.652;2023-11-18T12:51:51;0.88;;;0.68;;
50757;SDS011;36732;47.980;11.652;2023-11-18T12:54:20;0.80;;;0.75;;
50757;SDS011;36732;47.980;11.652;2023-11-18T12:56:50;0.68;;;0.65;;
50757;SDS011;36732;47.980;11.652;2023-11-18T12:59:18;1.02;;;0.73;;
50757;SDS011;36732;47.980;11.652;2023-11-18T13:01:49;1.17;;;0.85;;
50757;SDS011;36732;47.980;11.652;2023-11-18T13:04:28;1.10;;;0.68;;
50757;SDS011;36732;47.980;11.652;2023-11-18T13:06:55;1.08;;;0.57;;
50757;SDS011;36732;47.980;11.652;2023-11-18T13:09:23;0.63;;;0.60;;
50757;SDS011;36732;47.980;11.652;2023-11-18T13:11:53;1.23;;;0.57;;
50757;SDS011;36732;47.980;11.652;2023-11-18T13:14:21;0.60;;;0.60;;
50757;SDS011;36732;47.980;11.652;2023-11-18T13:16:55;0.77;;;0.60;;
50757;SDS011;36732;47.980;11.652;2023-11-18T13:19:24;3.10;;;0.60;;
50757;SDS011;36732;47.980;11.652;2023-11-18T13:22:04;1.25;;;0.70;;
50757;SDS011;36732;47.980;11.652;2023-11-18T13:24:34;1.40;;;0.70;;
50757;SDS011;36732;47.980;11.652;2023-11-18T13:27:04;0.95;;;0.80;;
50757;SDS011;36732;47.980;11.652;2023-11-18T13:29:32;0.90;;;0.60;;
50757;SDS011;36732;47.980;11.652;2023-11-18T13:32:00;1.70;;;0.60;;
50757;SDS011;36732;47.980;11.652;2023-11-18T13:34:29;1.13;;;0.63;;
50757;SDS011;36732;47.980;11.652;2023-11-18T13:36:58;2.50;;;1.10;;
50757;SDS011;36732;47.980;11.652;2023-11-18T13:39:23;2.50;;;1.33;;
50757;SDS011;36732;47.980;11.652;2023-11-18T13:41:52;2.35;;;1.40;;
50757;SDS011;36732;47.980;11.652;2023-11-18T13:44:31;2.22;;;0.93;;
50757;SDS011;36732;47.980;11.652;2023-11-18T13:46:59;4.60;;;1.50;;
50757;SDS011;36732;47.980;11.652;2023-11-18T13:49:27;4.07;;;1.80;;
50757;SDS011;36732;47.980;11.652;2023-11-18T13:51:57;4.30;;;2.30;;
50757;SDS011;36732;47.980;11.652;2023-11-18T13:54:23;3.28;;;2.13;;
50757;SDS011;36732;47.980;11.652;2023-11-18T13:56:50;3.03;;;2.08;;
50757;SDS011;36732;47.980;11.652;2023-11-18T13:59:23;2.57;;;1.70;;
50757;SDS011;36732;47.980;11.652;2023-11-18T14:01:51;3.75;;;2.13;;
50757;SDS011;36732;47.980;11.652;2023-11-18T14:04:19;3.22;;;2.03;;
50757;SDS011;36732;47.980;11.652;2023-11-18T14:07:04;1.65;;;1.50;;
50757;SDS011;36732;47.980;11.652;2023-11-18T14:09:33;1.75;;;1.15;;
50757;SDS011;36732;47.980;11.652;2023-11-18T14:12:05;2.00;;;1.10;;
50757;SDS011;36732;47.980;11.652;2023-11-18T14:14:33;1.15;;;1.05;;
50757;SDS011;36732;47.980;11.652;2023-11-18T14:16:59;1.88;;;1.40;;
50757;SDS011;36732;47.980;11.652;2023-11-18T14:19:26;2.13;;;1.40;;
50757;SDS011;36732;47.980;11.652;2023-11-18T14:21:53;2.65;;;1.40;;
50757;SDS011;36732;47.980;11.652;2023-11-18T14:24:19;1.65;;;1.30;;
50757;SDS011;36732;47.980;11.652;2023-11-18T14:26:48;2.83;;;1.60;;
50757;SDS011;36732;47.980;11.652;2023-11-18T14:29:15;4.30;;;2.70;;
50757;SDS011;36732;47.980;11.652;2023-11-18T14:31:41;4.05;;;3.08;;
50757;SDS011;36732;47.980;11.652;2023-11-18T14:34:07;4.47;;;2.92;;
50757;SDS011;36732;47.980;11.652;2023-11-18T14:36:36;3.58;;;2.60;;
50757;SDS011;36732;47.980;11.652;2023-11-18T14:39:02;2.50;;;2.00;;
50757;SDS011;36732;47.980;11.652;2023-11-18T14:41:28;2.13;;;1.63;;
50757;SDS011;36732;47.980;11.652;2023-11-18T14:43:56;1.52;;;1.42;;
50757;SDS011;36732;47.980;11.652;2023-11-18T14:46:23;1.90;;;1.40;;
50757;SDS011;36732;47.980;11.652;2023-11-18T14:48:49;1.60;;;1.35;;
50757;SDS011;36732;47.980;11.652;2023-11-18T14:51:16;2.67;;;1.75;;
50757;SDS011;36732;47.980;11.652;2023-11-18T14:53:42;2.72;;;1.55;;
50757;SDS011;36732;47.980;11.652;2023-11-18T14:56:08;2.85;;;2.05;;
50757;SDS011;36732;47.980;11.652;2023-11-18T14:58:34;6.15;;;2.10;;
50757;SDS011;36732;47.980;11.652;2023-11-18T15:01:00;3.83;;;2.50;;
50757;SDS011;36732;47.980;11.652;2023-11-18T15:03:27;6.50;;;3.38;;
50757;SDS011;36732;47.980;11.652;2023-11-18T15:05:53;4.15;;;2.58;;
50757;SDS011;36732;47.980;11.652;2023-11-18T15:08:19;3.78;;;1.77;;
50757;SDS011;36732;47.980;11.652;2023-11-18T15:10:44;7.10;;;2.15;;
50757;SDS011;36732;47.980;11.652;2023-11-18T15:13:10;2.55;;;2.10;;